sensor_id;sensor_type;location;lat;lon;timestamp;pressure;altitude;pressure_sealevel;temperature;humidity
55755;BME280;41674;52.290;-1.474;2023-06-01T00:01:00;102204.87;;;6.65;100.00
55755;BME280;41674;52.290;-1.474;2023-06-01T00:03:30;102203.75;;;7.94;100.00
55755;BME280;41674;52.290;-1.474;2023-06-01T00:06:00;102205.21;;;7.45;100.00
55755;BME280;41674;52.290;-1.474;2023-06-01T00:08:29;102203.32;;;7.83;100.00
55755;BME280;41674;52.290;-1.474;2023-06-01T00:10:59;102199.38;;;8.11;100.00
55755;BME280;41674;52.290;-1.474;2023-06-01T00:13:28;102198.54;;;7.66;100.00
55755;BME280;41674;52.290;-1.474;2023-06-01T00:15:57;102197.87;;;6.94;100.00
55755;BME280;41674;52.290;-1.474;2023-06-01T00:18:27;102193.22;;;8.29;100.00
55755;BME280;41674;52.290;-1.474;2023-06-01T00:20:57;102199.31;;;7.80;100.00
55755;BME280;41674;52.290;-1.474;2023-06-01T00:23:26;102201.76;;;7.03;100.00
55755;BME280;41674;52.290;-1.474;2023-06-01T00:25:55;102199.52;;;7.19;100.00
55755;BME280;41674;52.290;-1.474;2023-06-01T00:28:24;102198.25;;;6.62;100.00
55755;BME280;41674;52.290;-1.474;2023-06-01T00:30:54;102199.50;;;7.22;100.00
55755;BME280;41674;52.290;-1.474;2023-06-01T00:33:23;102198.07;;;6.59;100.00
55755;BME280;41674;52.290;-1.474;2023-06-01T00:35:53;102200.01;;;6.71;100.00
55755;BME280;41674;52.290;-1.474;2023-06-01T00:38:22;102207.43;;;7.63;100.00
55755;BME280;41674;52.290;-1.474;2023-06-01T00:40:52;102210.85;;;7.00;100.00
55755;BME280;41674;52.290;-1.474;2023-06-01T00:43:21;102209.30;;;5.94;100.00
55755;BME280;41674;52.290;-1.474;2023-06-01T00:45:51;102211.21;;;6.71;100.00
55755;BME280;41674;52.290;-1.474;2023-06-01T00:48:20;102212.85;;;7.08;100.00
55755;BME280;41674;52.290;-1.474;2023-06-01T00:50:50;102216.63;;;6.98;100.00
55755;BME280;41674;52.290;-1.474;2023-06-01T00:53:20;102213.78;;;6.87;100.00
55755;BME280;41674;52.290;-1.474;2023-06-01T00:55:48;102217.18;;;6.70;100.00
55755;BME280;41674;52.290;-1.474;2023-06-01T00:58:18;102205.91;;;7.81;100.00
55755;BME280;41674;52.290;-1.474;2023-06-01T01:00:48;102205.86;;;7.53;100.00
55755;BME280;41674;52.290;-1.474;2023-06-01T01:03:17;102204.11;;;8.74;98.55
55755;BME280;41674;52.290;-1.474;2023-06-01T01:05:47;102204.01;;;7.67;100.00
55755;BME280;41674;52.290;-1.474;2023-06-01T01:08:19;102203.75;;;9.02;97.58
55755;BME280;41674;52.290;-1.474;2023-06-01T01:10:52;102200.12;;;9.43;92.89
55755;BME280;41674;52.290;-1.474;2023-06-01T01:13:22;102202.44;;;8.98;94.22
55755;BME280;41674;52.290;-1.474;2023-06-01T01:15:52;102209.71;;;6.67;100.00
55755;BME280;41674;52.290;-1.474;2023-06-01T01:18:16;102201.86;;;8.17;100.00
55755;BME280;41674;52.290;-1.474;2023-06-01T01:20:51;102201.24;;;8.29;99.27
55755;BME280;41674;52.290;-1.474;2023-06-01T01:23:23;102199.97;;;9.29;96.05
55755;BME280;41674;52.290;-1.474;2023-06-01T01:26:00;102194.78;;;10.30;91.27
55755;BME280;41674;52.290;-1.474;2023-06-01T01:30:43;102200.01;;;9.34;97.86
55755;BME280;41674;52.290;-1.474;2023-06-01T01:33:12;102196.69;;;9.88;93.80
55755;BME280;41674;52.290;-1.474;2023-06-01T01:35:42;102198.26;;;9.48;92.94
55755;BME280;41674;52.290;-1.474;2023-06-01T01:38:11;102201.22;;;8.84;96.74
55755;BME280;41674;52.290;-1.474;2023-06-01T01:40:40;102199.22;;;8.84;97.33
55755;BME280;41674;52.290;-1.474;2023-06-01T01:43:09;102205.36;;;7.15;100.00
55755;BME280;41674;52.290;-1.474;2023-06-01T01:45:39;102203.59;;;7.25;100.00
55755;BME280;41674;52.290;-1.474;2023-06-01T01:48:14;102199.84;;;7.83;100.00
55755;BME280;41674;52.290;-1.474;2023-06-01T01:50:44;102194.90;;;7.80;100.00
55755;BME280;41674;52.290;-1.474;2023-06-01T01:53:09;102196.89;;;7.51;100.00
55755;BME280;41674;52.290;-1.474;2023-06-01T01:55:37;102200.61;;;6.86;100.00
55755;BME280;41674;52.290;-1.474;2023-06-01T01:58:06;102189.74;;;8.46;100.00
55755;BME280;41674;52.290;-1.474;2023-06-01T02:00:36;102190.14;;;8.54;94.94
55755;BME280;41674;52.290;-1.474;2023-06-01T02:03:12;102189.82;;;7.66;100.00
55755;BME280;41674;52.290;-1.474;2023-06-01T02:05:34;102191.94;;;7.34;100.00
55755;BME280;41674;52.290;-1.474;2023-06-01T02:08:04;102189.53;;;8.02;99.82
55755;BME280;41674;52.290;-1.474;2023-06-01T02:10:33;102196.59;;;7.15;100.00
55755;BME280;41674;52.290;-1.474;2023-06-01T02:13:03;102191.04;;;7.91;98.51
55755;BME280;41674;52.290;-1.474;2023-06-01T02:15:33;102197.72;;;6.85;100.00
55755;BME280;41674;52.290;-1.474;2023-06-01T02:18:02;102195.22;;;7.42;100.00
55755;BME280;41674;52.290;-1.474;2023-06-01T02:20:31;102196.05;;;6.57;100.00
55755;BME280;41674;52.290;-1.474;2023-06-01T02:23:01;102189.52;;;8.44;100.00
55755;BME280;41674;52.290;-1.474;2023-06-01T02:25:30;102189.67;;;8.80;97.78
55755;BME280;41674;52.290;-1.474;2023-06-01T02:28:00;102185.53;;;8.70;96.56
55755;BME280;41674;52.290;-1.474;2023-06-01T02:30:28;102183.63;;;9.66;91.85
55755;BME280;41674;52.290;-1.474;2023-06-01T02:32:58;102180.55;;;9.76;91.51
55755;BME280;41674;52.290;-1.474;2023-06-01T02:35:27;102179.05;;;8.08;98.90
55755;BME280;41674;52.290;-1.474;2023-06-01T02:37:57;102174.50;;;8.64;95.66
55755;BME280;41674;52.290;-1.474;2023-06-01T02:40:26;102179.46;;;7.20;100.00
55755;BME280;41674;52.290;-1.474;2023-06-01T02:42:56;102174.44;;;8.02;99.82
55755;BME280;41674;52.290;-1.474;2023-06-01T02:45:25;102175.45;;;7.82;100.00
55755;BME280;41674;52.290;-1.474;2023-06-01T02:47:55;102171.25;;;8.27;99.00
55755;BME280;41674;52.290;-1.474;2023-06-01T02:50:24;102176.50;;;7.12;100.00
55755;BME280;41674;52.290;-1.474;2023-06-01T02:52:53;102181.06;;;7.18;100.00
55755;BME280;41674;52.290;-1.474;2023-06-01T02:55:23;102174.10;;;8.40;99.55
55755;BME280;41674;52.290;-1.474;2023-06-01T02:57:52;102171.26;;;8.10;100.00
55755;BME280;41674;52.290;-1.474;2023-06-01T03:00:21;102173.21;;;8.62;97.30
55755;BME280;41674;52.290;-1.474;2023-06-01T03:02:51;102173.70;;;9.00;93.72
55755;BME280;41674;52.290;-1.474;2023-06-01T03:05:20;102172.36;;;9.91;90.98
55755;BME280;41674;52.290;-1.474;2023-06-01T03:07:50;102172.61;;;9.34;92.63
55755;BME280;41674;52.290;-1.474;2023-06-01T03:10:19;102172.78;;;8.72;92.92
55755;BME280;41674;52.290;-1.474;2023-06-01T03:12:48;102174.31;;;7.32;100.00
55755;BME280;41674;52.290;-1.474;2023-06-01T03:15:17;102166.87;;;9.40;93.19
55755;BME280;41674;52.290;-1.474;2023-06-01T03:17:47;102167.81;;;8.67;93.94
55755;BME280;41674;52.290;-1.474;2023-06-01T03:20:16;102164.27;;;7.95;96.28
55755;BME280;41674;52.290;-1.474;2023-06-01T03:22:46;102165.67;;;8.87;92.71
55755;BME280;41674;52.290;-1.474;2023-06-01T03:25:16;102164.86;;;8.01;97.07
55755;BME280;41674;52.290;-1.474;2023-06-01T03:27:45;102165.47;;;9.30;91.83
55755;BME280;41674;52.290;-1.474;2023-06-01T03:30:14;102166.68;;;8.12;96.04
55755;BME280;41674;52.290;-1.474;2023-06-01T03:32:44;102166.01;;;7.68;97.89
55755;BME280;41674;52.290;-1.474;2023-06-01T03:35:14;102166.10;;;8.75;94.18
55755;BME280;41674;52.290;-1.474;2023-06-01T03:37:45;102165.35;;;9.32;91.35
55755;BME280;41674;52.290;-1.474;2023-06-01T03:40:12;102166.93;;;8.48;93.65
55755;BME280;41674;52.290;-1.474;2023-06-01T03:42:43;102166.29;;;8.25;94.14
55755;BME280;41674;52.290;-1.474;2023-06-01T03:45:11;102161.20;;;7.89;95.21
55755;BME280;41674;52.290;-1.474;2023-06-01T03:47:41;102156.12;;;7.81;96.52
55755;BME280;41674;52.290;-1.474;2023-06-01T03:50:11;102155.13;;;8.16;95.45
55755;BME280;41674;52.290;-1.474;2023-06-01T03:52:39;102155.11;;;9.01;89.76
55755;BME280;41674;52.290;-1.474;2023-06-01T03:57:38;102154.77;;;8.27;91.83
55755;BME280;41674;52.290;-1.474;2023-06-01T04:00:12;102151.86;;;7.92;94.19
55755;BME280;41674;52.290;-1.474;2023-06-01T04:02:37;102150.71;;;8.55;90.11
55755;BME280;41674;52.290;-1.474;2023-06-01T04:05:06;102155.53;;;8.33;91.15
55755;BME280;41674;52.290;-1.474;2023-06-01T04:07:36;102157.10;;;7.00;98.05
55755;BME280;41674;52.290;-1.474;2023-06-01T04:10:06;102149.44;;;7.31;99.80
55755;BME280;41674;52.290;-1.474;2023-06-01T04:12:35;102148.72;;;7.53;98.65
55755;BME280;41674;52.290;-1.474;2023-06-01T04:15:05;102147.72;;;7.76;95.87
55755;BME280;41674;52.290;-1.474;2023-06-01T04:17:36;102146.92;;;7.73;97.33
55755;BME280;41674;52.290;-1.474;2023-06-01T04:20:04;102158.67;;;7.19;100.00
55755;BME280;41674;52.290;-1.474;2023-06-01T04:22:33;102153.40;;;8.36;96.28
55755;BME280;41674;52.290;-1.474;2023-06-01T04:25:05;102158.03;;;7.17;100.00
55755;BME280;41674;52.290;-1.474;2023-06-01T04:27:32;102159.03;;;5.96;100.00
55755;BME280;41674;52.290;-1.474;2023-06-01T04:30:02;102154.99;;;5.99;100.00
55755;BME280;41674;52.290;-1.474;2023-06-01T04:32:31;102155.03;;;6.85;100.00
55755;BME280;41674;52.290;-1.474;2023-06-01T04:35:02;102146.99;;;8.56;97.25
55755;BME280;41674;52.290;-1.474;2023-06-01T04:37:31;102147.46;;;8.07;99.90
55755;BME280;41674;52.290;-1.474;2023-06-01T04:40:00;102155.24;;;7.17;100.00
55755;BME280;41674;52.290;-1.474;2023-06-01T04:42:29;102151.98;;;6.30;100.00
55755;BME280;41674;52.290;-1.474;2023-06-01T04:44:59;102150.09;;;7.24;100.00
55755;BME280;41674;52.290;-1.474;2023-06-01T04:47:29;102144.33;;;8.54;96.89
55755;BME280;41674;52.290;-1.474;2023-06-01T04:49:59;102139.43;;;8.73;96.35
55755;BME280;41674;52.290;-1.474;2023-06-01T04:52:28;102132.36;;;9.66;91.88
55755;BME280;41674;52.290;-1.474;2023-06-01T04:54:57;102139.29;;;8.22;98.70
55755;BME280;41674;52.290;-1.474;2023-06-01T04:57:27;102135.93;;;9.00;92.74
55755;BME280;41674;52.290;-1.474;2023-06-01T04:59:56;102134.90;;;9.77;90.56
55755;BME280;41674;52.290;-1.474;2023-06-01T05:02:26;102139.09;;;8.62;93.08
55755;BME280;41674;52.290;-1.474;2023-06-01T05:04:55;102137.69;;;8.56;95.18
55755;BME280;41674;52.290;-1.474;2023-06-01T05:07:24;102137.79;;;7.62;99.31
55755;BME280;41674;52.290;-1.474;2023-06-01T05:09:54;102141.59;;;6.92;100.00
55755;BME280;41674;52.290;-1.474;2023-06-01T05:12:23;102140.84;;;7.11;100.00
55755;BME280;41674;52.290;-1.474;2023-06-01T05:14:53;102143.60;;;6.65;100.00
55755;BME280;41674;52.290;-1.474;2023-06-01T05:17:23;102140.74;;;6.59;100.00
55755;BME280;41674;52.290;-1.474;2023-06-01T05:19:53;102141.29;;;7.25;100.00
55755;BME280;41674;52.290;-1.474;2023-06-01T05:22:21;102142.16;;;6.64;100.00
55755;BME280;41674;52.290;-1.474;2023-06-01T05:24:51;102142.59;;;7.49;100.00
55755;BME280;41674;52.290;-1.474;2023-06-01T05:27:19;102138.50;;;8.52;98.87
55755;BME280;41674;52.290;-1.474;2023-06-01T05:29:49;102140.27;;;7.65;100.00
55755;BME280;41674;52.290;-1.474;2023-06-01T05:32:19;102141.13;;;7.90;100.00
55755;BME280;41674;52.290;-1.474;2023-06-01T05:34:48;102137.90;;;8.35;97.79
55755;BME280;41674;52.290;-1.474;2023-06-01T05:37:17;102136.61;;;8.84;96.08
55755;BME280;41674;52.290;-1.474;2023-06-01T05:39:47;102136.73;;;9.09;94.61
55755;BME280;41674;52.290;-1.474;2023-06-01T05:42:17;102135.07;;;8.03;97.66
55755;BME280;41674;52.290;-1.474;2023-06-01T05:44:46;102137.17;;;7.89;98.98
55755;BME280;41674;52.290;-1.474;2023-06-01T05:47:16;102131.81;;;9.52;90.77
55755;BME280;41674;52.290;-1.474;2023-06-01T05:49:45;102133.89;;;7.39;99.55
55755;BME280;41674;52.290;-1.474;2023-06-01T05:52:15;102131.40;;;8.05;96.76
55755;BME280;41674;52.290;-1.474;2023-06-01T05:54:44;102134.81;;;8.74;94.85
55755;BME280;41674;52.290;-1.474;2023-06-01T05:57:14;102133.49;;;7.03;100.00
55755;BME280;41674;52.290;-1.474;2023-06-01T05:59:43;102131.07;;;7.12;100.00
55755;BME280;41674;52.290;-1.474;2023-06-01T06:02:13;102135.29;;;7.07;100.00
55755;BME280;41674;52.290;-1.474;2023-06-01T06:04:42;102134.28;;;7.29;100.00
55755;BME280;41674;52.290;-1.474;2023-06-01T06:07:11;102133.05;;;8.20;99.65
55755;BME280;41674;52.290;-1.474;2023-06-01T06:09:40;102136.15;;;9.05;94.20
55755;BME280;41674;52.290;-1.474;2023-06-01T06:12:10;102134.10;;;9.61;90.53
55755;BME280;41674;52.290;-1.474;2023-06-01T06:14:39;102137.85;;;9.19;91.57
55755;BME280;41674;52.290;-1.474;2023-06-01T06:17:08;102140.81;;;8.50;95.62
55755;BME280;41674;52.290;-1.474;2023-06-01T06:19:38;102143.06;;;8.44;96.91
55755;BME280;41674;52.290;-1.474;2023-06-01T06:22:08;102143.68;;;7.64;100.00
55755;BME280;41674;52.290;-1.474;2023-06-01T06:24:38;102144.14;;;8.18;99.51
55755;BME280;41674;52.290;-1.474;2023-06-01T06:29:37;102143.05;;;8.77;97.14
55755;BME280;41674;52.290;-1.474;2023-06-01T06:32:07;102139.23;;;9.19;93.76
55755;BME280;41674;52.290;-1.474;2023-06-01T06:34:36;102142.32;;;8.99;95.64
55755;BME280;41674;52.290;-1.474;2023-06-01T06:37:06;102140.50;;;7.92;99.47
55755;BME280;41674;52.290;-1.474;2023-06-01T06:39:34;102133.95;;;7.51;99.76
55755;BME280;41674;52.290;-1.474;2023-06-01T06:42:05;102135.65;;;9.02;93.66
55755;BME280;41674;52.290;-1.474;2023-06-01T06:44:34;102134.10;;;8.67;93.88
55755;BME280;41674;52.290;-1.474;2023-06-01T06:47:03;102134.89;;;7.59;100.00
55755;BME280;41674;52.290;-1.474;2023-06-01T06:49:37;102142.53;;;6.77;100.00
55755;BME280;41674;52.290;-1.474;2023-06-01T06:52:02;102143.78;;;6.45;100.00
55755;BME280;41674;52.290;-1.474;2023-06-01T06:54:31;102142.02;;;6.85;100.00
55755;BME280;41674;52.290;-1.474;2023-06-01T06:57:01;102134.81;;;8.06;100.00
55755;BME280;41674;52.290;-1.474;2023-06-01T06:59:31;102142.01;;;8.61;98.33
55755;BME280;41674;52.290;-1.474;2023-06-01T07:02:00;102139.88;;;8.35;99.79
55755;BME280;41674;52.290;-1.474;2023-06-01T07:04:30;102141.11;;;8.96;97.06
55755;BME280;41674;52.290;-1.474;2023-06-01T07:06:59;102137.52;;;10.10;93.71
55755;BME280;41674;52.290;-1.474;2023-06-01T07:09:29;102136.10;;;9.91;91.54
55755;BME280;41674;52.290;-1.474;2023-06-01T07:11:58;102141.94;;;8.50;94.77
55755;BME280;41674;52.290;-1.474;2023-06-01T07:14:28;102139.63;;;9.55;92.91
55755;BME280;41674;52.290;-1.474;2023-06-01T07:16:57;102148.45;;;8.47;97.93
55755;BME280;41674;52.290;-1.474;2023-06-01T07:19:27;102148.89;;;8.98;96.48
55755;BME280;41674;52.290;-1.474;2023-06-01T07:21:56;102152.47;;;8.12;100.00
55755;BME280;41674;52.290;-1.474;2023-06-01T07:24:26;102155.19;;;8.00;99.11
55755;BME280;41674;52.290;-1.474;2023-06-01T07:26:57;102154.56;;;7.38;100.00
55755;BME280;41674;52.290;-1.474;2023-06-01T07:29:24;102157.50;;;7.80;100.00
55755;BME280;41674;52.290;-1.474;2023-06-01T07:31:54;102157.55;;;8.34;100.00
55755;BME280;41674;52.290;-1.474;2023-06-01T07:34:23;102158.75;;;8.99;96.63
55755;BME280;41674;52.290;-1.474;2023-06-01T07:36:52;102157.98;;;9.06;95.73
55755;BME280;41674;52.290;-1.474;2023-06-01T07:39:22;102157.99;;;8.69;96.25
55755;BME280;41674;52.290;-1.474;2023-06-01T07:41:52;102155.67;;;8.25;99.64
55755;BME280;41674;52.290;-1.474;2023-06-01T07:44:22;102160.47;;;8.83;95.87
55755;BME280;41674;52.290;-1.474;2023-06-01T07:46:51;102161.35;;;9.02;94.38
55755;BME280;41674;52.290;-1.474;2023-06-01T07:49:20;102165.01;;;8.36;97.27
55755;BME280;41674;52.290;-1.474;2023-06-01T07:51:50;102162.51;;;7.86;100.00
55755;BME280;41674;52.290;-1.474;2023-06-01T07:54:19;102166.58;;;7.26;100.00
55755;BME280;41674;52.290;-1.474;2023-06-01T07:56:49;102166.17;;;6.43;100.00
55755;BME280;41674;52.290;-1.474;2023-06-01T07:59:20;102166.45;;;7.49;100.00
55755;BME280;41674;52.290;-1.474;2023-06-01T08:01:49;102164.37;;;7.47;100.00
55755;BME280;41674;52.290;-1.474;2023-06-01T08:04:16;102157.73;;;7.76;100.00
55755;BME280;41674;52.290;-1.474;2023-06-01T08:06:45;102156.48;;;7.74;100.00
55755;BME280;41674;52.290;-1.474;2023-06-01T08:09:15;102154.46;;;7.83;100.00
55755;BME280;41674;52.290;-1.474;2023-06-01T08:11:44;102156.56;;;7.88;100.00
55755;BME280;41674;52.290;-1.474;2023-06-01T08:14:13;102157.10;;;8.50;96.33
55755;BME280;41674;52.290;-1.474;2023-06-01T08:16:43;102158.55;;;9.07;95.03
55755;BME280;41674;52.290;-1.474;2023-06-01T08:19:12;102150.43;;;10.02;90.38
55755;BME280;41674;52.290;-1.474;2023-06-01T08:21:41;102156.02;;;8.58;91.67
55755;BME280;41674;52.290;-1.474;2023-06-01T08:24:11;102159.69;;;9.07;93.64
55755;BME280;41674;52.290;-1.474;2023-06-01T08:26:41;102158.38;;;8.70;93.97
55755;BME280;41674;52.290;-1.474;2023-06-01T08:29:10;102154.23;;;8.26;97.80
55755;BME280;41674;52.290;-1.474;2023-06-01T08:31:39;102160.84;;;8.80;95.32
55755;BME280;41674;52.290;-1.474;2023-06-01T08:34:08;102161.47;;;8.19;97.82
55755;BME280;41674;52.290;-1.474;2023-06-01T08:36:37;102166.74;;;8.68;97.19
55755;BME280;41674;52.290;-1.474;2023-06-01T08:39:19;102164.65;;;8.98;96.17
55755;BME280;41674;52.290;-1.474;2023-06-01T08:41:40;102161.76;;;9.26;96.69
55755;BME280;41674;52.290;-1.474;2023-06-01T08:44:09;102161.79;;;8.78;96.51
55755;BME280;41674;52.290;-1.474;2023-06-01T08:46:43;102159.65;;;9.35;93.85
55755;BME280;41674;52.290;-1.474;2023-06-01T08:49:07;102155.48;;;9.73;89.80
55755;BME280;41674;52.290;-1.474;2023-06-01T08:51:36;102154.46;;;9.71;91.64
55755;BME280;41674;52.290;-1.474;2023-06-01T08:54:06;102153.83;;;10.21;87.58
55755;BME280;41674;52.290;-1.474;2023-06-01T08:56:34;102151.25;;;9.91;87.41
55755;BME280;41674;52.290;-1.474;2023-06-01T08:59:03;102152.58;;;9.17;92.00
55755;BME280;41674;52.290;-1.474;2023-06-01T09:01:32;102153.75;;;10.30;88.37
55755;BME280;41674;52.290;-1.474;2023-06-01T09:04:02;102150.35;;;9.44;90.54
55755;BME280;41674;52.290;-1.474;2023-06-01T09:06:31;102151.21;;;10.50;87.43
55755;BME280;41674;52.290;-1.474;2023-06-01T09:09:00;102150.12;;;9.02;93.23
55755;BME280;41674;52.290;-1.474;2023-06-01T09:11:31;102149.68;;;8.67;93.39
55755;BME280;41674;52.290;-1.474;2023-06-01T09:16:35;102142.66;;;9.77;91.41
55755;BME280;41674;52.290;-1.474;2023-06-01T09:19:00;102142.45;;;10.11;90.93
55755;BME280;41674;52.290;-1.474;2023-06-01T09:21:29;102144.49;;;10.32;89.27
55755;BME280;41674;52.290;-1.474;2023-06-01T09:26:28;102145.71;;;9.71;91.00
55755;BME280;41674;52.290;-1.474;2023-06-01T09:29:00;102145.56;;;10.21;88.62
55755;BME280;41674;52.290;-1.474;2023-06-01T09:31:37;102140.72;;;9.52;92.19
55755;BME280;41674;52.290;-1.474;2023-06-01T09:34:00;102141.59;;;10.33;91.35
55755;BME280;41674;52.290;-1.474;2023-06-01T09:36:26;102142.46;;;10.18;89.42
55755;BME280;41674;52.290;-1.474;2023-06-01T09:39:03;102141.67;;;10.06;91.68
55755;BME280;41674;52.290;-1.474;2023-06-01T09:41:25;102144.56;;;10.50;88.90
55755;BME280;41674;52.290;-1.474;2023-06-01T09:43:55;102145.55;;;10.57;85.71
55755;BME280;41674;52.290;-1.474;2023-06-01T09:46:24;102149.15;;;10.80;86.96
55755;BME280;41674;52.290;-1.474;2023-06-01T09:49:05;102149.89;;;11.82;84.02
55755;BME280;41674;52.290;-1.474;2023-06-01T09:51:24;102148.95;;;10.32;87.96
55755;BME280;41674;52.290;-1.474;2023-06-01T09:53:52;102149.70;;;11.04;86.92
55755;BME280;41674;52.290;-1.474;2023-06-01T09:56:22;102148.98;;;10.28;89.40
55755;BME280;41674;52.290;-1.474;2023-06-01T09:58:57;102146.45;;;9.42;93.66
55755;BME280;41674;52.290;-1.474;2023-06-01T10:01:21;102145.25;;;9.00;95.93
55755;BME280;41674;52.290;-1.474;2023-06-01T10:03:51;102143.18;;;9.09;97.57
55755;BME280;41674;52.290;-1.474;2023-06-01T10:06:20;102137.06;;;9.54;94.03
55755;BME280;41674;52.290;-1.474;2023-06-01T10:08:49;102128.24;;;9.81;92.80
55755;BME280;41674;52.290;-1.474;2023-06-01T10:11:19;102141.47;;;9.10;95.43
55755;BME280;41674;52.290;-1.474;2023-06-01T10:13:48;102131.37;;;10.18;90.14
55755;BME280;41674;52.290;-1.474;2023-06-01T10:16:18;102128.94;;;10.59;87.68
55755;BME280;41674;52.290;-1.474;2023-06-01T10:18:48;102132.59;;;10.30;90.28
55755;BME280;41674;52.290;-1.474;2023-06-01T10:21:17;102133.30;;;11.22;85.76
55755;BME280;41674;52.290;-1.474;2023-06-01T10:23:46;102134.92;;;10.58;86.14
55755;BME280;41674;52.290;-1.474;2023-06-01T10:26:16;102130.99;;;11.69;81.37
55755;BME280;41674;52.290;-1.474;2023-06-01T10:28:45;102132.94;;;11.16;83.14
55755;BME280;41674;52.290;-1.474;2023-06-01T10:31:33;102122.27;;;11.81;80.54
55755;BME280;41674;52.290;-1.474;2023-06-01T10:33:53;102126.29;;;11.69;82.79
55755;BME280;41674;52.290;-1.474;2023-06-01T10:36:12;102127.44;;;9.94;88.72
55755;BME280;41674;52.290;-1.474;2023-06-01T10:38:42;102124.59;;;9.69;91.77
55755;BME280;41674;52.290;-1.474;2023-06-01T10:41:25;102123.46;;;10.35;90.35
55755;BME280;41674;52.290;-1.474;2023-06-01T10:43:41;102127.82;;;10.67;88.19
55755;BME280;41674;52.290;-1.474;2023-06-01T10:48:50;102126.91;;;11.58;85.61
55755;BME280;41674;52.290;-1.474;2023-06-01T10:51:19;102126.76;;;11.51;81.52
55755;BME280;41674;52.290;-1.474;2023-06-01T10:53:38;102128.54;;;11.33;81.09
55755;BME280;41674;52.290;-1.474;2023-06-01T10:56:21;102127.51;;;11.25;82.22
55755;BME280;41674;52.290;-1.474;2023-06-01T10:58:38;102125.48;;;11.58;82.93
55755;BME280;41674;52.290;-1.474;2023-06-01T11:01:06;102121.20;;;12.72;77.95
55755;BME280;41674;52.290;-1.474;2023-06-01T11:03:43;102121.10;;;12.08;78.28
55755;BME280;41674;52.290;-1.474;2023-06-01T11:06:24;102118.95;;;12.40;77.98
55755;BME280;41674;52.290;-1.474;2023-06-01T11:08:51;102118.28;;;12.77;77.09
55755;BME280;41674;52.290;-1.474;2023-06-01T11:11:05;102120.42;;;12.83;77.44
55755;BME280;41674;52.290;-1.474;2023-06-01T11:13:35;102118.81;;;11.96;80.87
55755;BME280;41674;52.290;-1.474;2023-06-01T11:18:42;102116.05;;;12.92;76.55
55755;BME280;41674;52.290;-1.474;2023-06-01T11:21:02;102116.87;;;12.61;75.35
55755;BME280;41674;52.290;-1.474;2023-06-01T11:23:33;102118.32;;;13.33;75.99
55755;BME280;41674;52.290;-1.474;2023-06-01T11:26:02;102116.57;;;12.29;77.39
55755;BME280;41674;52.290;-1.474;2023-06-01T11:28:30;102118.60;;;11.55;80.50
55755;BME280;41674;52.290;-1.474;2023-06-01T11:31:01;102118.34;;;12.80;77.60
55755;BME280;41674;52.290;-1.474;2023-06-01T11:33:29;102119.59;;;12.98;75.55
55755;BME280;41674;52.290;-1.474;2023-06-01T11:35:59;102119.03;;;10.11;85.65
55755;BME280;41674;52.290;-1.474;2023-06-01T11:38:34;102118.64;;;11.35;82.92
55755;BME280;41674;52.290;-1.474;2023-06-01T11:41:00;102117.67;;;11.94;83.50
55755;BME280;41674;52.290;-1.474;2023-06-01T11:43:28;102115.47;;;13.19;78.86
55755;BME280;41674;52.290;-1.474;2023-06-01T11:46:00;102116.08;;;12.17;77.26
55755;BME280;41674;52.290;-1.474;2023-06-01T11:48:27;102112.48;;;11.68;80.14
55755;BME280;41674;52.290;-1.474;2023-06-01T11:50:57;102109.77;;;12.30;80.25
55755;BME280;41674;52.290;-1.474;2023-06-01T11:53:26;102113.91;;;12.78;78.40
55755;BME280;41674;52.290;-1.474;2023-06-01T11:55:55;102107.25;;;12.98;74.55
55755;BME280;41674;52.290;-1.474;2023-06-01T11:58:26;102109.63;;;13.07;73.05
55755;BME280;41674;52.290;-1.474;2023-06-01T12:00:54;102117.03;;;12.44;76.99
55755;BME280;41674;52.290;-1.474;2023-06-01T12:03:24;102120.69;;;12.19;76.96
55755;BME280;41674;52.290;-1.474;2023-06-01T12:05:53;102120.15;;;11.71;77.74
55755;BME280;41674;52.290;-1.474;2023-06-01T12:08:24;102111.96;;;13.69;73.76
55755;BME280;41674;52.290;-1.474;2023-06-01T12:10:52;102114.06;;;13.54;74.27
55755;BME280;41674;52.290;-1.474;2023-06-01T12:13:21;102114.08;;;14.01;68.79
55755;BME280;41674;52.290;-1.474;2023-06-01T12:15:51;102108.07;;;13.96;70.63
55755;BME280;41674;52.290;-1.474;2023-06-01T12:18:29;102110.29;;;14.91;69.76
55755;BME280;41674;52.290;-1.474;2023-06-01T12:20:49;102106.60;;;13.78;72.07
55755;BME280;41674;52.290;-1.474;2023-06-01T12:23:18;102114.40;;;12.65;77.74
55755;BME280;41674;52.290;-1.474;2023-06-01T12:25:49;102115.72;;;13.33;74.74
55755;BME280;41674;52.290;-1.474;2023-06-01T12:28:17;102104.84;;;14.60;70.65
55755;BME280;41674;52.290;-1.474;2023-06-01T12:30:46;102104.07;;;13.39;74.63
55755;BME280;41674;52.290;-1.474;2023-06-01T12:35:48;102102.13;;;14.15;76.46
55755;BME280;41674;52.290;-1.474;2023-06-01T12:38:15;102106.24;;;13.46;74.97
55755;BME280;41674;52.290;-1.474;2023-06-01T12:40:44;102106.94;;;14.23;74.86
55755;BME280;41674;52.290;-1.474;2023-06-01T12:43:18;102109.32;;;13.73;74.24
55755;BME280;41674;52.290;-1.474;2023-06-01T12:45:43;102111.28;;;15.11;69.18
55755;BME280;41674;52.290;-1.474;2023-06-01T12:50:44;102105.93;;;15.46;69.49
55755;BME280;41674;52.290;-1.474;2023-06-01T12:53:12;102108.38;;;15.39;68.04
55755;BME280;41674;52.290;-1.474;2023-06-01T12:55:46;102101.48;;;15.01;68.12
55755;BME280;41674;52.290;-1.474;2023-06-01T12:58:10;102100.34;;;15.01;67.90
55755;BME280;41674;52.290;-1.474;2023-06-01T13:00:48;102097.43;;;14.61;69.26
55755;BME280;41674;52.290;-1.474;2023-06-01T13:03:09;102094.36;;;15.40;67.72
55755;BME280;41674;52.290;-1.474;2023-06-01T13:05:41;102086.22;;;16.39;65.12
55755;BME280;41674;52.290;-1.474;2023-06-01T13:08:09;102085.04;;;16.55;62.45
55755;BME280;41674;52.290;-1.474;2023-06-01T13:10:43;102074.13;;;16.34;63.30
55755;BME280;41674;52.290;-1.474;2023-06-01T13:13:07;102077.90;;;15.47;65.15
55755;BME280;41674;52.290;-1.474;2023-06-01T13:15:40;102072.64;;;16.15;59.90
55755;BME280;41674;52.290;-1.474;2023-06-01T13:18:12;102077.16;;;16.22;63.01